Time;durP1;ratioP1;P1;durP2;ratioP2;P2;SDS_P1;SDS_P2;PMS_P1;PMS_P2;Temp;Humidity;BMP_temperature;BMP_pressure;BME280_temperature;BME280_humidity;BME280_pressure;Samples;Min_cycle;Max_cycle;Signal;HPM_P1;HPM_P2
2023/09/01 00:00:43;;;;;;;1999.90;999.90;;;19.50;99.90;;;;;;5085339;28;20043;-78
2023/09/01 00:03:09;;;;;;;1999.90;999.90;;;19.40;99.90;;;;;;5094030;28;20044;-78
2023/09/01 00:05:36;;;;;;;1999.90;999.90;;;19.20;99.90;;;;;;5054812;28;20303;-78
2023/09/01 00:08:02;;;;;;;1999.90;999.90;;;19.10;99.90;;;;;;5052269;28;20032;-78
2023/09/01 00:10:28;;;;;;;1999.90;999.90;;;19.10;99.90;;;;;;5053039;28;20395;-73
2023/09/01 00:12:56;;;;;;;1999.90;999.90;;;19.10;99.90;;;;;;5055921;28;20047;-78
2023/09/01 00:15:22;;;;;;;1999.90;999.90;;;19.10;99.90;;;;;;5072292;28;20111;-78
2023/09/01 00:17:47;;;;;;;1999.90;999.90;;;19.10;99.90;;;;;;5073644;28;20467;-78
2023/09/01 00:20:13;;;;;;;1999.90;999.90;;;19.10;99.90;;;;;;5073502;28;20024;-72
2023/09/01 00:22:38;;;;;;;1999.90;999.90;;;19.10;99.90;;;;;;5070518;28;20036;-78
2023/09/01 00:25:05;;;;;;;1999.90;999.90;;;19.10;99.90;;;;;;5053635;28;20024;-79
2023/09/01 00:27:30;;;;;;;1999.90;999.90;;;19.20;99.90;;;;;;5053372;28;20503;-79
2023/09/01 00:29:56;;;;;;;1999.90;999.90;;;19.20;99.90;;;;;;5053437;28;20025;-79
2023/09/01 00:32:21;;;;;;;1999.90;999.90;;;19.30;99.90;;;;;;5053684;28;20025;-79
2023/09/01 00:34:55;;;;;;;1999.90;999.90;;;19.30;99.90;;;;;;5053276;28;20056;-72
2023/09/01 00:37:21;;;;;;;1999.90;999.90;;;19.40;99.90;;;;;;5053341;28;20104;-79
2023/09/01 00:39:47;;;;;;;1999.90;999.90;;;19.40;99.90;;;;;;5061006;28;20052;-81
2023/09/01 00:42:12;;;;;;;1999.90;999.90;;;19.50;99.90;;;;;;5062071;28;20024;-81
2023/09/01 00:44:38;;;;;;;1999.90;999.90;;;19.50;99.90;;;;;;5062178;28;20033;-80
2023/09/01 00:47:04;;;;;;;1999.90;999.90;;;19.50;99.90;;;;;;5061837;28;20034;-71
2023/09/01 00:49:30;;;;;;;1999.90;999.90;;;19.60;99.90;;;;;;5073072;28;20029;-71
2023/09/01 00:51:57;;;;;;;1999.90;999.90;;;19.60;99.90;;;;;;5073443;28;20017;-79
2023/09/01 00:54:23;;;;;;;1999.90;999.90;;;19.70;99.90;;;;;;5073151;28;20413;-79
2023/09/01 00:56:50;;;;;;;1999.90;999.90;;;19.70;99.90;;;;;;5073589;28;20025;-79
2023/09/01 00:59:16;;;;;;;1999.90;999.90;;;19.80;99.90;;;;;;5062144;28;20033;-71
2023/09/01 01:01:42;;;;;;;1999.90;999.90;;;19.80;99.90;;;;;;5069600;28;20174;-71
2023/09/01 01:04:08;;;;;;;1999.90;999.90;;;19.80;99.90;;;;;;5081658;28;20139;-79
2023/09/01 01:06:47;;;;;;;1999.90;999.90;;;19.90;99.90;;;;;;5075225;28;20364;-79
2023/09/01 01:09:39;;;;;;;1999.90;999.90;;;19.90;99.90;;;;;;5093101;28;20372;-71
2023/09/01 01:12:23;;;;;;;1999.90;999.90;;;19.90;99.90;;;;;;5075549;28;20024;-79
2023/09/01 01:14:55;;;;;;;1999.90;999.90;;;19.80;99.90;;;;;;5072736;28;20028;-71
2023/09/01 01:17:21;;;;;;;1999.90;999.90;;;19.80;99.90;;;;;;5073250;28;20043;-79
2023/09/01 01:20:02;;;;;;;1999.90;999.90;;;19.80;99.90;;;;;;5072877;28;20089;-78
2023/09/01 01:22:42;;;;;;;1999.90;999.90;;;19.70;99.90;;;;;;5073077;28;20067;-79
2023/09/01 01:25:10;;;;;;;1999.90;999.90;;;19.70;99.90;;;;;;5093169;28;20033;-75
2023/09/01 01:27:36;;;;;;;1999.90;999.90;;;19.80;99.90;;;;;;5093156;28;20091;-72
2023/09/01 01:30:05;;;;;;;1999.90;999.90;;;19.80;99.90;;;;;;5093175;28;20490;-79
2023/09/01 01:32:31;;;;;;;1999.90;999.90;;;19.80;99.90;;;;;;5092805;28;20036;-79
2023/09/01 01:35:35;;;;;;;1999.90;999.90;;;19.70;99.90;;;;;;5092819;28;20524;-79
2023/09/01 01:38:14;;;;;;;1999.90;999.90;;;19.70;99.90;;;;;;5053030;28;20392;-79
2023/09/01 01:40:43;;;;;;;1999.90;999.90;;;19.70;99.90;;;;;;5052525;28;20035;-72
2023/09/01 01:43:11;;;;;;;1999.90;999.90;;;19.70;99.90;;;;;;5052601;28;20082;-78
2023/09/01 01:45:41;;;;;;;1999.90;999.90;;;19.70;99.90;;;;;;5052546;28;20025;-79
2023/09/01 01:48:07;;;;;;;1999.90;999.90;;;19.70;99.90;;;;;;5052701;28;20476;-78
2023/09/01 01:50:33;;;;;;;1999.90;999.90;;;19.60;99.90;;;;;;5052363;28;20029;-79
2023/09/01 01:52:59;;;;;;;1999.90;999.90;;;19.60;99.90;;;;;;5052769;28;20036;-72
2023/09/01 01:55:25;;;;;;;1999.90;999.90;;;19.60;99.90;;;;;;5052526;28;20029;-79
2023/09/01 01:57:50;;;;;;;1999.90;999.90;;;19.60;99.90;;;;;;5059822;28;20388;-78
2023/09/01 02:00:16;;;;;;;1999.90;999.90;;;19.60;99.90;;;;;;5081601;28;20032;-78
2023/09/01 02:02:42;;;;;;;1999.90;999.90;;;19.70;99.90;;;;;;5093193;28;20020;-79
2023/09/01 02:05:09;;;;;;;1999.90;999.90;;;19.70;99.90;;;;;;5092419;28;20109;-72
2023/09/01 02:07:35;;;;;;;1999.90;999.90;;;19.70;99.90;;;;;;5092783;28;20478;-71
2023/09/01 02:10:01;;;;;;;1999.90;999.90;;;19.70;99.90;;;;;;5092108;28;20114;-78
2023/09/01 02:12:27;;;;;;;1999.90;999.90;;;19.70;99.90;;;;;;5072538;28;20492;-79
2023/09/01 02:14:53;;;;;;;1999.90;999.90;;;19.70;99.90;;;;;;5072212;28;20036;-78
2023/09/01 02:17:19;;;;;;;1999.90;999.90;;;19.60;99.90;;;;;;5071770;28;20408;-71
2023/09/01 02:19:45;;;;;;;1999.90;999.90;;;19.50;99.90;;;;;;5072258;28;20028;-72
2023/09/01 02:22:10;;;;;;;1999.90;999.90;;;19.50;99.90;;;;;;5073173;28;20025;-78
2023/09/01 02:24:36;;;;;;;1999.90;999.90;;;19.50;99.90;;;;;;5075303;28;20024;-78
2023/09/01 02:27:01;;;;;;;1999.90;999.90;;;19.50;99.90;;;;;;5075810;28;20025;-78
2023/09/01 02:29:27;;;;;;;1999.90;999.90;;;19.40;99.90;;;;;;5075626;28;20345;-78
2023/09/01 02:31:53;;;;;;;1999.90;999.90;;;19.40;99.90;;;;;;5076039;28;20482;-72
2023/09/01 02:34:19;;;;;;;1999.90;999.90;;;19.40;99.90;;;;;;5074338;28;20070;-78
2023/09/01 02:36:45;;;;;;;1999.90;999.90;;;19.30;99.90;;;;;;5075541;28;20028;-78
2023/09/01 02:39:11;;;;;;;1999.90;999.90;;;19.30;99.90;;;;;;5075672;28;20499;-78
2023/09/01 02:41:37;;;;;;;1999.90;999.90;;;19.30;99.90;;;;;;5075705;28;20376;-77
2023/09/01 02:44:03;;;;;;;1999.90;999.90;;;19.30;99.90;;;;;;5075622;28;20027;-72
2023/09/01 02:46:29;;;;;;;1999.90;999.90;;;19.30;99.90;;;;;;5075293;28;20055;-71
2023/09/01 02:48:55;;;;;;;1999.90;999.90;;;19.30;99.90;;;;;;5075629;28;20051;-78
2023/09/01 02:51:21;;;;;;;1999.90;999.90;;;19.30;99.90;;;;;;5075476;28;20463;-78
2023/09/01 02:53:47;;;;;;;1999.90;999.90;;;19.40;99.90;;;;;;5075527;28;20471;-78
2023/09/01 02:56:13;;;;;;;1999.90;999.90;;;19.40;99.90;;;;;;5075471;28;20055;-72
2023/09/01 02:58:38;;;;;;;1999.90;999.90;;;19.40;99.90;;;;;;5081642;28;20030;-72
2023/09/01 03:01:08;;;;;;;1999.90;999.90;;;19.40;99.90;;;;;;5086788;28;20552;-78
2023/09/01 03:03:39;;;;;;;1999.90;999.90;;;19.40;99.90;;;;;;5095214;28;20503;-78
2023/09/01 03:06:05;;;;;;;1999.90;999.90;;;19.40;99.90;;;;;;5094716;28;20391;-78
2023/09/01 03:08:32;;;;;;;1999.90;999.90;;;19.50;99.90;;;;;;5095032;28;20020;-78
2023/09/01 03:10:57;;;;;;;1999.90;999.90;;;19.50;99.90;;;;;;5087278;28;20074;-72
2023/09/01 03:13:23;;;;;;;1999.90;999.90;;;19.60;99.90;;;;;;5074932;28;20033;-78
2023/09/01 03:15:49;;;;;;;1999.90;999.90;;;19.60;99.90;;;;;;5074940;28;20036;-78
2023/09/01 03:18:14;;;;;;;1999.90;999.90;;;19.60;99.90;;;;;;5075254;28;20042;-78
2023/09/01 03:20:43;;;;;;;1999.90;999.90;;;19.70;99.90;;;;;;5073182;28;20029;-78
2023/09/01 03:23:08;;;;;;;1999.90;999.90;;;19.70;99.90;;;;;;5074474;28;20095;-72
2023/09/01 03:25:34;;;;;;;1999.90;999.90;;;19.70;99.90;;;;;;5074724;28;20016;-71
2023/09/01 03:28:00;;;;;;;1999.90;999.90;;;19.80;99.90;;;;;;5074955;28;20430;-79
2023/09/01 03:30:25;;;;;;;1999.90;999.90;;;19.80;99.90;;;;;;5074820;28;20055;-78
2023/09/01 03:32:52;;;;;;;1999.90;999.90;;;19.70;99.90;;;;;;5074484;28;20434;-78
2023/09/01 03:35:17;;;;;;;1999.90;999.90;;;19.60;99.90;;;;;;5074841;28;20024;-71
2023/09/01 03:37:43;;;;;;;1999.90;999.90;;;19.60;99.90;;;;;;5069579;28;20040;-72
2023/09/01 03:40:09;;;;;;;1999.90;999.90;;;19.50;99.90;;;;;;5054452;28;20025;-78
2023/09/01 03:42:36;;;;;;;1999.90;999.90;;;19.40;99.90;;;;;;5055194;28;20025;-79
2023/09/01 03:45:02;;;;;;;1999.90;999.90;;;19.40;99.90;;;;;;5057222;28;20021;-79
2023/09/01 03:47:28;;;;;;;1999.90;999.90;;;19.30;99.90;;;;;;5073101;28;20082;-79
2023/09/01 03:49:53;;;;;;;1999.90;999.90;;;19.30;99.90;;;;;;5091201;28;20111;-71
2023/09/01 03:52:19;;;;;;;1999.90;999.90;;;19.20;99.90;;;;;;5094865;28;20031;-78
2023/09/01 03:54:44;;;;;;;1999.90;999.90;;;19.20;99.90;;;;;;5093009;28;20020;-78
2023/09/01 03:57:10;;;;;;;1999.90;999.90;;;19.20;99.90;;;;;;5074282;28;20398;-78
2023/09/01 03:59:36;;;;;;;1999.90;999.90;;;19.20;99.90;;;;;;5080285;28;20107;-78
2023/09/01 04:02:01;;;;;;;1999.90;999.90;;;19.10;99.90;;;;;;5092909;28;20493;-72
2023/09/01 04:04:27;;;;;;;1999.90;999.90;;;19.10;99.90;;;;;;5053869;28;20064;-72
2023/09/01 04:06:53;;;;;;;1999.90;999.90;;;19.20;99.90;;;;;;5053816;28;20020;-78
2023/09/01 04:09:19;;;;;;;1999.90;999.90;;;19.10;99.90;;;;;;5053921;28;20460;-78
2023/09/01 04:11:45;;;;;;;1999.90;999.90;;;19.20;99.90;;;;;;5074604;28;20068;-78
2023/09/01 04:14:11;;;;;;;1999.90;999.90;;;19.20;99.90;;;;;;5075031;28;20059;-78
2023/09/01 04:16:38;;;;;;;1999.90;999.90;;;19.30;99.90;;;;;;5081239;28;20491;-72
2023/09/01 04:19:04;;;;;;;1999.90;999.90;;;19.30;99.90;;;;;;5093778;28;20085;-78
2023/09/01 04:21:29;;;;;;;1999.90;999.90;;;19.30;99.90;;;;;;5093891;28;20024;-78
2023/09/01 04:23:55;;;;;;;1999.90;999.90;;;19.30;99.90;;;;;;5093806;28;20020;-78
2023/09/01 04:26:21;;;;;;;1999.90;999.90;;;19.30;99.90;;;;;;5093949;28;20455;-78
2023/09/01 04:28:46;;;;;;;1999.90;999.90;;;19.30;99.90;;;;;;5093846;28;20052;-72
2023/09/01 04:31:28;;;;;;;1999.90;999.90;;;19.30;99.90;;;;;;5093907;28;20028;-72
2023/09/01 04:33:57;;;;;;;1999.90;999.90;;;19.40;99.90;;;;;;5093607;28;20069;-78
2023/09/01 04:36:23;;;;;;;1999.90;999.90;;;19.40;99.90;;;;;;5088725;28;20012;-78
2023/09/01 04:38:49;;;;;;;1999.90;999.90;;;19.40;99.90;;;;;;5093235;28;20027;-78
2023/09/01 04:41:15;;;;;;;1999.90;999.90;;;19.50;99.90;;;;;;5093713;28;20047;-72
2023/09/01 04:43:40;;;;;;;1999.90;999.90;;;19.50;99.90;;;;;;5074679;28;20483;-72
2023/09/01 04:46:06;;;;;;;1999.90;999.90;;;19.50;99.90;;;;;;5075143;28;20476;-78
2023/09/01 04:48:32;;;;;;;1999.90;999.90;;;19.50;99.90;;;;;;5083610;28;20497;-78
2023/09/01 04:51:02;;;;;;;1999.90;999.90;;;19.50;99.90;;;;;;5093324;28;20058;-78
2023/09/01 04:53:28;;;;;;;1999.90;999.90;;;19.50;99.90;;;;;;5093403;28;20020;-72
2023/09/01 04:55:55;;;;;;;1999.90;999.90;;;19.50;99.90;;;;;;5092952;28;20051;-71
2023/09/01 04:58:21;;;;;;;1999.90;999.90;;;19.50;99.90;;;;;;5088631;28;20107;-78
2023/09/01 05:00:47;;;;;;;1999.90;999.90;;;19.50;99.90;;;;;;5084112;28;20522;-78
2023/09/01 05:03:13;;;;;;;1999.90;999.90;;;19.50;99.90;;;;;;5093373;28;20028;-78
2023/09/01 05:05:39;;;;;;;1999.90;999.90;;;19.50;99.90;;;;;;5090786;28;20395;-78
2023/09/01 05:08:05;;;;;;;1999.90;999.90;;;19.50;99.90;;;;;;5072957;28;20029;-72
2023/09/01 05:10:31;;;;;;;1999.90;999.90;;;19.40;99.90;;;;;;5073006;28;20027;-78
2023/09/01 05:12:56;;;;;;;1999.90;999.90;;;19.40;99.90;;;;;;5072908;28;20419;-78
2023/09/01 05:15:22;;;;;;;1999.90;999.90;;;19.40;99.90;;;;;;5072662;28;20048;-78
2023/09/01 05:17:47;;;;;;;1999.90;999.90;;;19.50;99.90;;;;;;5073804;28;20440;-78
2023/09/01 05:20:13;;;;;;;1999.90;999.90;;;19.50;99.90;;;;;;5080059;28;20369;-71
2023/09/01 05:22:39;;;;;;;1999.90;999.90;;;19.60;99.90;;;;;;5092754;28;20016;-72
2023/09/01 05:25:05;;;;;;;1999.90;999.90;;;19.60;99.90;;;;;;5092804;28;20486;-78
2023/09/01 05:27:31;;;;;;;1999.90;999.90;;;19.60;99.90;;;;;;5081436;28;20036;-78
2023/09/01 05:29:56;;;;;;;1999.90;999.90;;;19.60;99.90;;;;;;5089746;28;20032;-78
2023/09/01 05:32:23;;;;;;;1999.90;999.90;;;19.60;99.90;;;;;;5092842;28;20028;-72
2023/09/01 05:34:48;;;;;;;1999.90;999.90;;;19.60;99.90;;;;;;5092607;28;20498;-72
2023/09/01 05:37:14;;;;;;;1999.90;999.90;;;19.60;99.90;;;;;;5076455;28;20025;-78
2023/09/01 05:39:41;;;;;;;1999.90;999.90;;;19.70;99.90;;;;;;5080476;28;20028;-78
2023/09/01 05:42:07;;;;;;;1999.90;999.90;;;19.70;99.90;;;;;;5070758;28;20122;-78
2023/09/01 05:44:33;;;;;;;1999.90;999.90;;;19.80;99.90;;;;;;5055829;28;20021;-78
2023/09/01 05:46:59;;;;;;;1999.90;999.90;;;19.80;99.90;;;;;;5076532;28;20529;-72
2023/09/01 05:49:25;;;;;;;1999.90;999.90;;;19.90;99.90;;;;;;5074595;28;20081;-78
2023/09/01 05:51:51;;;;;;;1999.90;999.90;;;19.90;99.90;;;;;;5071502;28;20040;-78
2023/09/01 05:54:18;;;;;;;1999.90;999.90;;;19.90;99.90;;;;;;5070406;28;20498;-77
2023/09/01 05:56:44;;;;;;;1999.90;999.90;;;20.00;99.90;;;;;;5075228;28;20549;-78
2023/09/01 05:59:09;;;;;;;1999.90;999.90;;;20.00;99.90;;;;;;5082204;28;20028;-72
2023/09/01 06:01:36;;;;;;;1999.90;999.90;;;20.00;99.90;;;;;;5079103;28;20051;-72
2023/09/01 06:04:05;;;;;;;1999.90;999.90;;;20.00;99.90;;;;;;5077035;28;20132;-78
2023/09/01 06:06:35;;;;;;;1999.90;999.90;;;20.10;99.90;;;;;;5075004;28;20024;-72
2023/09/01 06:09:01;;;;;;;1999.90;999.90;;;20.10;99.90;;;;;;5078657;28;20059;-79
2023/09/01 06:11:28;;;;;;;1999.90;999.90;;;20.10;99.90;;;;;;5081218;28;20424;-72
2023/09/01 06:13:54;;;;;;;1999.90;999.90;;;20.10;99.90;;;;;;5074119;28;20029;-72
2023/09/01 06:16:20;;;;;;;1999.90;999.90;;;20.10;99.90;;;;;;5074035;28;20027;-78
2023/09/01 06:18:46;;;;;;;1999.90;999.90;;;20.10;99.90;;;;;;5074265;28;20016;-72
2023/09/01 06:21:15;;;;;;;1999.90;999.90;;;20.10;99.90;;;;;;5079494;28;20054;-78
2023/09/01 06:23:45;;;;;;;1999.90;999.90;;;20.10;99.90;;;;;;5074291;28;20376;-78
2023/09/01 06:26:14;;;;;;;1999.90;999.90;;;20.20;99.90;;;;;;5071149;28;20387;-77
2023/09/01 06:28:40;;;;;;;1999.90;999.90;;;20.20;99.90;;;;;;5073934;28;20454;-72
2023/09/01 06:31:09;;;;;;;1999.90;999.90;;;20.20;99.90;;;;;;5080415;28;20016;-72
2023/09/01 06:33:37;;;;;;;1999.90;999.90;;;20.20;99.90;;;;;;5076681;28;20028;-78
2023/09/01 06:36:04;;;;;;;1999.90;999.90;;;20.20;99.90;;;;;;5073621;28;20020;-72
2023/09/01 06:38:29;;;;;;;1999.90;999.90;;;20.30;99.90;;;;;;5073227;28;20118;-72
2023/09/01 06:40:55;;;;;;;1999.90;999.90;;;20.30;99.90;;;;;;5083834;28;20487;-72
2023/09/01 06:43:21;;;;;;;1999.90;999.90;;;20.30;99.90;;;;;;5074183;28;20043;-78
2023/09/01 06:45:46;;;;;;;1999.90;999.90;;;20.30;99.90;;;;;;5078656;28;20086;-77
2023/09/01 06:48:12;;;;;;;1999.90;999.90;;;20.30;99.90;;;;;;5085644;28;20025;-77
2023/09/01 06:50:38;;;;;;;1999.90;999.90;;;20.40;99.90;;;;;;5073774;28;20052;-71
2023/09/01 06:53:05;;;;;;;1999.90;999.90;;;20.50;99.90;;;;;;5073713;28;20098;-72
2023/09/01 06:55:30;;;;;;;1999.90;999.90;;;20.50;99.90;;;;;;5074045;28;20036;-78
2023/09/01 06:57:56;;;;;;;1999.90;999.90;;;20.60;99.90;;;;;;5083028;28;20044;-72
2023/09/01 07:00:22;;;;;;;1999.90;999.90;;;20.70;99.90;;;;;;5082711;28;20074;-77
2023/09/01 07:02:47;;;;;;;1999.90;999.90;;;20.70;99.90;;;;;;5073688;28;20040;-78
2023/09/01 07:05:15;;;;;;;1999.90;999.90;;;20.80;99.90;;;;;;5073222;28;20056;-72
2023/09/01 07:07:40;;;;;;;1999.90;999.90;;;20.80;99.90;;;;;;5070702;28;20028;-72
2023/09/01 07:10:06;;;;;;;1999.90;999.90;;;20.80;99.90;;;;;;5072555;28;20028;-78
2023/09/01 07:12:32;;;;;;;1999.90;999.90;;;20.90;99.90;;;;;;5070342;28;20337;-72
2023/09/01 07:14:57;;;;;;;1999.90;999.90;;;20.90;99.90;;;;;;5071606;28;20039;-78
2023/09/01 07:17:24;;;;;;;1999.90;999.90;;;21.00;99.90;;;;;;5072504;28;20034;-78
2023/09/01 07:19:50;;;;;;;1999.90;999.90;;;21.00;99.90;;;;;;5084520;28;20494;-73
2023/09/01 07:22:15;;;;;;;1999.90;999.90;;;21.10;99.90;;;;;;5073655;28;20050;-78
2023/09/01 07:24:41;;;;;;;1999.90;999.90;;;21.20;99.90;;;;;;5076411;28;20051;-78
2023/09/01 07:27:07;;;;;;;1999.90;999.90;;;21.60;99.90;;;;;;5072214;28;20020;-78
2023/09/01 07:29:33;;;;;;;1999.90;999.90;;;21.50;99.90;;;;;;5072460;28;20095;-78
2023/09/01 07:32:03;;;;;;;1999.90;999.90;;;21.60;99.90;;;;;;5072174;28;20476;-72
2023/09/01 07:34:29;;;;;;;1999.90;999.90;;;21.50;99.90;;;;;;5083793;28;20039;-78
2023/09/01 07:36:54;;;;;;;1999.90;999.90;;;21.40;99.90;;;;;;5080731;28;20032;-78
2023/09/01 07:39:20;;;;;;;1999.90;999.90;;;21.50;99.90;;;;;;5072485;28;20063;-72
2023/09/01 07:41:45;;;;;;;1999.90;999.90;;;21.40;99.90;;;;;;5076018;28;20043;-77
2023/09/01 07:44:16;;;;;;;1999.90;999.90;;;21.40;99.90;;;;;;5074844;28;20028;-72
2023/09/01 07:46:42;;;;;;;1999.90;999.90;;;21.40;99.90;;;;;;5076628;28;20017;-78
2023/09/01 07:49:08;;;;;;;1999.90;999.90;;;21.70;99.90;;;;;;5076944;28;20028;-72
2023/09/01 07:51:34;;;;;;;1999.90;999.90;;;21.50;99.90;;;;;;5070789;28;20380;-78
2023/09/01 07:53:59;;;;;;;1999.90;999.90;;;21.50;99.90;;;;;;5076124;28;20035;-77
2023/09/01 07:56:25;;;;;;;1999.90;999.90;;;21.90;99.90;;;;;;5071009;28;20031;-72
2023/09/01 07:58:51;;;;;;;1999.90;999.90;;;22.20;99.90;;;;;;5076627;28;20032;-72
2023/09/01 08:01:16;;;;;;;1999.90;999.90;;;22.90;99.90;;;;;;5077553;28;20036;-77
2023/09/01 08:03:42;;;;;;;1999.90;999.90;;;23.70;99.90;;;;;;5079256;28;20086;-78
2023/09/01 08:06:08;;;;;;;1999.90;999.90;;;22.60;99.90;;;;;;5073920;28;20032;-77
2023/09/01 08:08:33;;;;;;;1999.90;999.90;;;22.40;99.90;;;;;;5068529;28;20019;-73
2023/09/01 08:10:59;;;;;;;1999.90;999.90;;;22.10;99.90;;;;;;5059404;28;20043;-73
2023/09/01 08:13:26;;;;;;;1999.90;999.90;;;22.40;99.90;;;;;;5067772;28;20089;-77
2023/09/01 08:15:51;;;;;;;1999.90;999.90;;;22.70;99.90;;;;;;5071702;28;20498;-75
2023/09/01 08:18:17;;;;;;;1999.90;999.90;;;22.50;99.90;;;;;;5070959;28;20025;-78
2023/09/01 08:20:43;;;;;;;1999.90;999.90;;;22.40;99.90;;;;;;5070980;28;20064;-78
2023/09/01 08:23:10;;;;;;;1999.90;999.90;;;22.20;99.90;;;;;;5076838;28;20028;-72
2023/09/01 08:25:36;;;;;;;1999.90;999.90;;;22.30;99.90;;;;;;5078926;28;20025;-78
2023/09/01 08:28:05;;;;;;;1999.90;999.90;;;23.40;99.90;;;;;;5077942;28;20025;-78
2023/09/01 08:30:31;;;;;;;1999.90;999.90;;;26.10;99.90;;;;;;5071627;28;20064;-78
2023/09/01 08:32:57;;;;;;;1999.90;999.90;;;27.40;99.90;;;;;;5071450;28;20416;-79
2023/09/01 08:35:22;;;;;;;1999.90;999.90;;;26.40;99.90;;;;;;5074799;28;20043;-78
2023/09/01 08:37:48;;;;;;;1999.90;999.90;;;26.00;99.90;;;;;;5070907;28;20044;-73
2023/09/01 08:40:14;;;;;;;1999.90;999.90;;;27.50;99.90;;;;;;5072650;28;20055;-76
2023/09/01 08:42:47;;;;;;;1999.90;999.90;;;27.80;99.90;;;;;;5075219;28;20020;-78
2023/09/01 08:45:19;;;;;;;1999.90;999.90;;;27.10;99.90;;;;;;5077943;28;20110;-73
2023/09/01 08:47:46;;;;;;;1999.90;999.90;;;25.70;99.90;;;;;;5077182;28;20028;-72
2023/09/01 08:50:13;;;;;;;1999.90;999.90;;;26.30;99.90;;;;;;5072273;28;20028;-73
2023/09/01 08:52:41;;;;;;;1999.90;999.90;;;24.80;99.90;;;;;;5071044;28;20020;-78
2023/09/01 08:55:07;;;;;;;1999.90;999.90;;;25.60;99.90;;;;;;5071562;28;20037;-78
2023/09/01 08:57:33;;;;;;;1999.90;999.90;;;25.80;99.90;;;;;;5070511;28;20101;-77
2023/09/01 08:59:58;;;;;;;1999.90;999.90;;;26.50;99.90;;;;;;5077841;28;20032;-79
2023/09/01 09:02:24;;;;;;;1999.90;999.90;;;27.80;99.90;;;;;;5069617;28;20047;-73
2023/09/01 09:04:49;;;;;;;1999.90;999.90;;;27.80;99.90;;;;;;5070098;28;20055;-78
2023/09/01 09:07:17;;;;;;;1999.90;999.90;;;29.10;99.90;;;;;;5073486;28;20032;-78
2023/09/01 09:09:58;;;;;;;1999.90;999.90;;;28.60;99.90;;;;;;5076260;28;20030;-78
2023/09/01 09:12:37;;;;;;;1999.90;999.90;;;28.20;99.90;;;;;;5070484;28;20029;-78
2023/09/01 09:15:03;;;;;;;1999.90;999.90;;;28.70;99.90;;;;;;5059742;28;20016;-73
2023/09/01 09:17:44;;;;;;;1999.90;999.90;;;26.40;99.90;;;;;;5069551;28;20039;-77
2023/09/01 09:20:15;;;;;;;1999.90;999.90;;;25.10;99.90;;;;;;5084539;28;20039;-78
2023/09/01 09:22:54;;;;;;;1999.90;999.90;;;24.90;99.90;;;;;;5071358;28;20496;-78
2023/09/01 09:25:30;;;;;;;1999.90;999.90;;;24.50;99.90;;;;;;5080225;28;20468;-73
2023/09/01 09:28:00;;;;;;;1999.90;999.90;;;27.10;99.90;;;;;;5070675;28;20020;-74
2023/09/01 09:30:27;;;;;;;1999.90;999.90;;;28.40;99.90;;;;;;5071839;28;20028;-73
2023/09/01 09:33:07;;;;;;;1999.90;999.90;;;27.80;99.90;;;;;;5074889;28;20031;-78
2023/09/01 09:35:34;;;;;;;1999.90;999.90;;;25.70;99.90;;;;;;5074531;28;20103;-78
2023/09/01 09:38:00;;;;;;;1999.90;999.90;;;24.70;99.90;;;;;;5070646;28;20503;-78
2023/09/01 09:40:26;;;;;;;1999.90;999.90;;;24.50;99.90;;;;;;5082011;28;20038;-74
2023/09/01 09:42:52;;;;;;;1999.90;999.90;;;25.00;99.90;;;;;;5082617;28;20020;-73
2023/09/01 09:45:29;;;;;;;1999.90;999.90;;;26.00;99.90;;;;;;5086804;28;20403;-78
2023/09/01 09:47:57;;;;;;;1999.90;999.90;;;27.20;99.90;;;;;;5089133;28;20058;-78
2023/09/01 09:50:24;;;;;;;1999.90;999.90;;;26.80;99.90;;;;;;5074955;28;20104;-77
2023/09/01 09:52:59;;;;;;;1999.90;999.90;;;26.70;99.90;;;;;;5073839;28;20042;-73
2023/09/01 09:55:29;;;;;;;1999.90;999.90;;;26.60;99.90;;;;;;5075292;28;20030;-74
2023/09/01 09:58:04;;;;;;;1999.90;999.90;;;28.70;99.90;;;;;;5073203;28;20560;-77
2023/09/01 10:00:49;;;;;;;1999.90;999.90;;;30.40;99.90;;;;;;5087294;28;20067;-78
2023/09/01 10:03:15;;;;;;;1999.90;999.90;;;30.20;99.90;;;;;;5073023;28;20045;-78
2023/09/01 10:05:43;;;;;;;1999.90;999.90;;;30.10;99.90;;;;;;5073305;28;20033;-73
2023/09/01 10:08:08;;;;;;;1999.90;999.90;;;29.70;99.90;;;;;;5072225;28;20047;-73
2023/09/01 10:10:35;;;;;;;1999.90;999.90;;;29.00;99.90;;;;;;5082151;28;20029;-79
2023/09/01 10:13:07;;;;;;;1999.90;999.90;;;29.00;99.90;;;;;;5073627;28;20024;-77
2023/09/01 10:15:34;;;;;;;1999.90;999.90;;;28.70;99.90;;;;;;5073996;28;20039;-77
2023/09/01 10:18:02;;;;;;;1999.90;999.90;;;27.80;99.90;;;;;;5073961;28;20311;-76
2023/09/01 10:20:33;;;;;;;1999.90;999.90;;;27.30;99.90;;;;;;5073720;28;20028;-74
2023/09/01 10:23:02;;;;;;;1999.90;999.90;;;27.10;99.90;;;;;;5078332;28;20066;-77
2023/09/01 10:25:28;;;;;;;1999.90;999.90;;;26.80;99.90;;;;;;5082045;28;20028;-76
2023/09/01 10:28:05;;;;;;;1999.90;999.90;;;27.00;99.90;;;;;;5073865;28;20031;-77
2023/09/01 10:30:33;;;;;;;1999.90;999.90;;;27.00;99.90;;;;;;5074607;28;20484;-77
2023/09/01 10:33:14;;;;;;;1999.90;999.90;;;26.90;99.90;;;;;;5074231;28;20043;-73
2023/09/01 10:35:43;;;;;;;1999.90;999.90;;;27.20;99.90;;;;;;5074280;28;20032;-76
2023/09/01 10:38:13;;;;;;;1999.90;999.90;;;27.00;99.90;;;;;;5074356;28;20034;-76
2023/09/01 10:40:40;;;;;;;1999.90;999.90;;;26.50;99.90;;;;;;5074215;28;20028;-76
2023/09/01 10:43:06;;;;;;;1999.90;999.90;;;26.30;99.90;;;;;;5072910;28;20017;-77
2023/09/01 10:45:32;;;;;;;1999.90;999.90;;;25.90;99.90;;;;;;5074271;28;20046;-73
2023/09/01 10:47:58;;;;;;;1999.90;999.90;;;25.50;99.90;;;;;;5087007;28;20123;-77
2023/09/01 10:50:23;;;;;;;1999.90;999.90;;;25.30;99.90;;;;;;5074295;28;20096;-76
2023/09/01 10:53:29;;;;;;;1999.90;999.90;;;25.20;99.90;;;;;;5073742;28;20543;-77
2023/09/01 10:56:12;;;;;;;1999.90;999.90;;;24.80;99.90;;;;;;5031090;28;20038;-76
2023/09/01 10:58:52;;;;;;;1999.90;999.90;;;24.80;99.90;;;;;;5000443;28;20029;-73
2023/09/01 11:01:23;;;;;;;1999.90;999.90;;;24.90;99.90;;;;;;5005712;28;20043;-73
2023/09/01 11:03:49;;;;;;;1999.90;999.90;;;24.80;99.90;;;;;;5011420;28;20057;-77
2023/09/01 11:06:15;;;;;;;1999.90;999.90;;;25.00;99.90;;;;;;5011825;28;20029;-77
2023/09/01 11:08:41;;;;;;;1999.90;999.90;;;25.30;99.90;;;;;;5012099;28;20136;-77
2023/09/01 11:11:08;;;;;;;1999.90;999.90;;;26.00;99.90;;;;;;5012256;28;20026;-73
2023/09/01 11:13:35;;;;;;;1999.90;999.90;;;26.30;99.90;;;;;;5011415;28;20508;-73
2023/09/01 11:16:07;;;;;;;1999.90;999.90;;;25.90;99.90;;;;;;5017388;28;20271;-76
2023/09/01 11:18:33;;;;;;;1999.90;999.90;;;25.90;99.90;;;;;;5010618;28;20041;-76
2023/09/01 11:21:00;;;;;;;1999.90;999.90;;;26.00;99.90;;;;;;5010347;28;20830;-73
2023/09/01 11:23:27;;;;;;;1999.90;999.90;;;26.20;99.90;;;;;;5010383;28;20022;-74
2023/09/01 11:26:03;;;;;;;1999.90;999.90;;;26.20;99.90;;;;;;5023164;28;20037;-74
2023/09/01 11:28:29;;;;;;;1999.90;999.90;;;26.40;99.90;;;;;;5072628;28;20035;-77
2023/09/01 11:31:03;;;;;;;1999.90;999.90;;;26.30;99.90;;;;;;5072804;28;20031;-77
2023/09/01 11:33:33;;;;;;;1999.90;999.90;;;26.40;99.90;;;;;;5071363;28;20040;-74
2023/09/01 11:36:10;;;;;;;1999.90;999.90;;;26.40;99.90;;;;;;5072730;28;20074;-75
2023/09/01 11:38:36;;;;;;;1999.90;999.90;;;26.60;99.90;;;;;;5072403;28;20417;-74
2023/09/01 11:41:05;;;;;;;1999.90;999.90;;;26.30;99.90;;;;;;5073456;28;20100;-76
2023/09/01 11:43:31;;;;;;;1999.90;999.90;;;26.00;99.90;;;;;;5071531;28;20032;-77
2023/09/01 11:45:56;;;;;;;1999.90;999.90;;;26.20;99.90;;;;;;5073653;28;20412;-76
2023/09/01 11:48:27;;;;;;;1999.90;999.90;;;26.50;99.90;;;;;;5077165;28;20056;-76
2023/09/01 11:50:54;;;;;;;1999.90;999.90;;;26.10;99.90;;;;;;5072659;28;20020;-73
2023/09/01 11:53:30;;;;;;;1999.90;999.90;;;25.30;99.90;;;;;;5071619;28;20115;-73
2023/09/01 11:56:01;;;;;;;1999.90;999.90;;;25.00;99.90;;;;;;5072419;28;20024;-76
2023/09/01 11:58:32;;;;;;;1999.90;999.90;;;25.10;99.90;;;;;;5071810;28;20074;-76
2023/09/01 12:01:10;;;;;;;1999.90;999.90;;;25.60;99.90;;;;;;5075416;28;20031;-76